createdAt,value
2017-10-01T06:39:50.815Z,89.90
2017-10-01T06:42:18.315Z,89.40
2017-10-01T06:44:45.833Z,89.40
2017-10-01T06:47:13.321Z,89.80
2017-10-01T06:49:40.806Z,89.10
2017-10-01T06:52:08.308Z,88.50
2017-10-01T06:54:35.796Z,88.30
2017-10-01T06:57:03.270Z,88.50
2017-10-01T06:59:30.781Z,88.60
2017-10-01T07:01:58.269Z,88.00
2017-10-01T07:04:29.004Z,88.40
2017-10-01T07:06:56.496Z,88.30
2017-10-01T07:09:24.791Z,87.50
2017-10-01T07:11:53.051Z,87.90
2017-10-01T07:14:20.529Z,87.90
2017-10-01T07:16:48.778Z,88.10
2017-10-01T07:19:16.264Z,88.10
2017-10-01T07:21:44.506Z,88.50
2017-10-01T07:24:12.012Z,88.50
2017-10-01T07:26:39.498Z,88.60
2017-10-01T07:29:06.988Z,88.60
2017-10-01T07:31:34.458Z,88.50
2017-10-01T07:34:02.692Z,87.80
2017-10-01T07:36:30.190Z,87.80
2017-10-01T07:38:57.663Z,87.90
2017-10-01T07:41:25.169Z,87.70
2017-10-01T07:43:52.645Z,87.90
2017-10-01T07:46:20.185Z,87.50
2017-10-01T07:48:47.671Z,87.40
2017-10-01T07:51:15.176Z,87.40
2017-10-01T07:53:42.683Z,87.30
2017-10-01T07:56:10.257Z,87.60
2017-10-01T07:58:37.736Z,86.60
2017-10-01T08:01:05.959Z,86.70
2017-10-01T08:03:33.477Z,86.70
2017-10-01T08:06:00.960Z,86.40
2017-10-01T08:08:28.463Z,86.40
2017-10-01T08:10:55.938Z,85.80
2017-10-01T08:13:24.250Z,86.20
2017-10-01T08:15:51.766Z,86.20
2017-10-01T08:18:19.235Z,85.50
2017-10-01T08:20:47.519Z,85.40
2017-10-01T08:23:15.752Z,87.00
2017-10-01T08:25:43.259Z,87.00
2017-10-01T08:28:10.732Z,85.20
2017-10-01T08:30:38.924Z,86.70
2017-10-01T08:33:07.459Z,86.40
2017-10-01T08:35:36.329Z,85.60
2017-10-01T08:38:05.409Z,84.20
2017-10-01T08:40:32.915Z,84.10
2017-10-01T08:43:01.734Z,84.40
2017-10-01T08:45:29.304Z,84.40
2017-10-01T08:47:56.810Z,83.70
2017-10-01T08:50:25.056Z,85.90
2017-10-01T08:52:52.564Z,85.90
2017-10-01T08:55:20.808Z,85.20
2017-10-01T08:57:49.130Z,83.60
2017-10-01T09:00:16.620Z,83.70
2017-10-01T09:02:44.100Z,82.50
2017-10-01T09:05:11.596Z,80.60
2017-10-01T09:07:42.415Z,75.70
2017-10-01T09:10:09.978Z,75.60
2017-10-01T09:12:38.240Z,81.10
2017-10-01T09:15:05.719Z,81.10
2017-10-01T09:17:33.992Z,71.50
2017-10-01T09:20:02.259Z,74.30
2017-10-01T09:22:29.759Z,74.40
2017-10-01T09:24:57.260Z,73.50
2017-10-01T09:27:24.757Z,73.80
2017-10-01T09:29:53.740Z,69.90
2017-10-01T09:32:21.997Z,67.20
2017-10-01T09:34:49.498Z,67.10
2017-10-01T09:37:17.040Z,68.40
2017-10-01T09:39:45.328Z,69.40
2017-10-01T09:42:12.803Z,69.40
2017-10-01T09:44:40.287Z,72.70
2017-10-01T09:47:07.794Z,71.70
2017-10-01T09:49:36.038Z,69.60
2017-10-01T09:52:03.563Z,69.50
2017-10-01T09:54:31.055Z,68.70
2017-10-01T09:56:58.544Z,67.10
2017-10-01T09:59:26.811Z,67.90
2017-10-01T10:01:55.661Z,70.10
2017-10-01T10:04:23.162Z,70.00
2017-10-01T10:06:54.856Z,69.80
2017-10-01T10:09:22.379Z,69.80
2017-10-01T10:11:49.843Z,68.90
2017-10-01T10:14:18.076Z,68.70
2017-10-01T10:16:45.571Z,68.70
2017-10-01T10:19:13.811Z,73.60
2017-10-01T10:21:41.956Z,73.60
2017-10-01T10:24:13.089Z,71.40
2017-10-01T10:26:40.591Z,70.50
2017-10-01T10:29:08.104Z,69.60
2017-10-01T10:31:36.389Z,71.10
2017-10-01T10:34:03.860Z,71.20
2017-10-01T10:36:31.386Z,66.30
2017-10-01T10:38:59.607Z,68.10
2017-10-01T10:41:27.079Z,68.10
2017-10-01T10:43:54.582Z,69.10
2017-10-01T10:46:22.820Z,66.20
2017-10-01T10:48:50.323Z,66.20
2017-10-01T10:51:17.839Z,71.80
2017-10-01T10:53:45.371Z,66.70
2017-10-01T10:56:12.851Z,67.40
2017-10-01T10:58:40.327Z,65.10
2017-10-01T11:01:07.851Z,67.30
2017-10-01T11:03:35.358Z,68.20
2017-10-01T11:06:02.859Z,67.40
2017-10-01T11:08:30.345Z,66.30
2017-10-01T11:10:57.831Z,65.60
2017-10-01T11:13:26.096Z,65.40
2017-10-01T11:15:53.584Z,65.40
2017-10-01T11:18:21.836Z,65.00
2017-10-01T11:20:49.327Z,65.00
2017-10-01T11:23:16.833Z,65.10
2017-10-01T11:25:44.348Z,64.40
2017-10-01T11:28:11.825Z,65.80
2017-10-01T11:30:39.316Z,64.90
2017-10-01T11:33:06.810Z,64.60
2017-10-01T11:35:35.059Z,63.00
2017-10-01T11:38:02.580Z,62.90
2017-10-01T11:40:30.103Z,64.50
2017-10-01T11:42:58.353Z,63.00
2017-10-01T11:45:25.855Z,62.90
2017-10-01T11:47:53.333Z,63.10
2017-10-01T11:50:20.856Z,62.60
2017-10-01T11:52:49.108Z,63.30
2017-10-01T11:55:16.632Z,63.30
2017-10-01T11:57:44.113Z,62.70
2017-10-01T12:00:11.597Z,64.10
2017-10-01T12:02:39.901Z,64.30
2017-10-01T12:05:07.387Z,64.30
2017-10-01T12:07:34.885Z,62.80
2017-10-01T12:10:02.349Z,62.50
2017-10-01T12:12:29.888Z,64.70
2017-10-01T12:14:57.399Z,62.70
2017-10-01T12:17:24.866Z,64.80
2017-10-01T12:19:52.351Z,62.80
2017-10-01T12:22:19.855Z,64.00
2017-10-01T12:24:48.118Z,63.20
2017-10-01T12:27:16.380Z,62.50
2017-10-01T12:29:44.667Z,63.00
2017-10-01T12:32:12.903Z,63.00
2017-10-01T12:34:40.375Z,63.00
2017-10-01T12:37:07.949Z,61.50
2017-10-01T12:39:35.429Z,63.10
2017-10-01T12:42:03.687Z,62.70
2017-10-01T12:44:31.190Z,62.70
2017-10-01T12:46:58.678Z,61.80
2017-10-01T12:49:26.185Z,61.30
2017-10-01T12:51:54.432Z,62.70
2017-10-01T12:54:21.959Z,62.80
2017-10-01T12:56:49.443Z,61.80
2017-10-01T12:59:16.956Z,62.90
2017-10-01T13:01:50.998Z,62.00
2017-10-01T13:04:18.496Z,62.00
2017-10-01T13:06:46.019Z,62.30
2017-10-01T13:09:13.491Z,62.40
2017-10-01T13:11:40.967Z,62.10
2017-10-01T13:14:08.476Z,62.60
2017-10-01T13:16:35.941Z,61.80
2017-10-01T13:19:03.463Z,61.70
2017-10-01T13:21:31.711Z,62.80
2017-10-01T13:23:59.966Z,61.90
2017-10-01T13:26:27.447Z,61.90
2017-10-01T13:28:54.930Z,62.40
2017-10-01T13:31:23.204Z,60.90
2017-10-01T13:33:50.700Z,60.90
2017-10-01T13:36:18.228Z,60.90
2017-10-01T13:38:46.472Z,60.50
2017-10-01T13:41:13.947Z,60.50
2017-10-01T13:43:41.511Z,61.50
2017-10-01T13:46:09.012Z,61.00
2017-10-01T13:48:36.519Z,57.40
2017-10-01T13:51:03.998Z,60.40
2017-10-01T13:53:32.220Z,53.30
2017-10-01T13:55:59.733Z,53.20
2017-10-01T13:58:27.838Z,51.20
2017-10-01T14:00:55.328Z,51.60
2017-10-01T14:03:22.808Z,49.80
2017-10-01T14:05:50.320Z,50.60
2017-10-01T14:08:17.792Z,47.60
2017-10-01T14:10:45.349Z,46.40
2017-10-01T14:13:13.240Z,40.50
2017-10-01T14:15:40.716Z,41.30
2017-10-01T14:18:08.236Z,41.60
2017-10-01T14:20:35.732Z,38.70
2017-10-01T14:23:03.242Z,37.80
2017-10-01T14:25:30.724Z,38.40
2017-10-01T14:27:58.218Z,39.30
2017-10-01T14:30:31.384Z,39.50
2017-10-01T14:32:58.907Z,39.20
2017-10-01T14:35:26.410Z,40.40
2017-10-01T14:37:54.661Z,37.10
2017-10-01T14:40:22.158Z,36.90
2017-10-01T14:42:49.659Z,37.40
2017-10-01T14:45:17.172Z,38.40
2017-10-01T14:47:44.641Z,37.50
2017-10-01T14:50:12.930Z,38.40
2017-10-01T14:52:41.180Z,37.20
2017-10-01T14:55:08.639Z,37.00
2017-10-01T14:57:36.150Z,37.70
2017-10-01T15:00:03.642Z,38.40
2017-10-01T15:02:31.131Z,38.60
2017-10-01T15:04:59.387Z,38.70
2017-10-01T15:07:26.871Z,38.70
2017-10-01T15:09:57.002Z,38.80
2017-10-01T15:12:24.527Z,37.70
2017-10-01T15:14:52.062Z,38.10
2017-10-01T15:17:23.982Z,38.60
2017-10-01T15:19:52.238Z,39.40
2017-10-01T15:22:19.708Z,39.40
2017-10-01T15:24:47.971Z,39.10
2017-10-01T15:27:15.457Z,39.10
2017-10-01T15:29:42.955Z,38.60
2017-10-01T15:32:10.426Z,38.50
2017-10-01T15:34:37.911Z,38.60
2017-10-01T15:37:05.414Z,38.20
2017-10-01T15:39:32.891Z,40.00
2017-10-01T15:42:00.391Z,40.80
2017-10-01T15:44:28.651Z,46.20
2017-10-01T15:46:56.176Z,46.20
2017-10-01T15:49:24.639Z,45.40
2017-10-01T15:51:52.141Z,43.20
2017-10-01T15:54:19.620Z,44.50
2017-10-01T15:56:47.143Z,44.00
2017-10-01T15:59:14.624Z,47.60
2017-10-01T16:01:42.133Z,47.00
2017-10-01T16:04:09.601Z,49.30
2017-10-01T16:06:38.430Z,56.10
2017-10-01T16:09:05.901Z,52.60
2017-10-01T16:11:33.443Z,48.20
2017-10-01T16:14:00.938Z,54.60
2017-10-01T16:16:29.549Z,53.80
2017-10-01T16:18:57.080Z,53.70
2017-10-01T16:21:25.343Z,60.50
2017-10-01T16:23:56.725Z,60.50
2017-10-01T16:26:24.284Z,59.90
2017-10-01T16:28:52.168Z,60.70
2017-10-01T16:31:19.712Z,61.80
2017-10-01T16:33:47.216Z,64.50
2017-10-01T16:36:14.747Z,65.30
2017-10-01T16:38:42.668Z,66.30
2017-10-01T16:41:10.915Z,68.50
2017-10-01T16:43:39.403Z,68.60
2017-10-01T16:46:06.969Z,73.10
2017-10-01T16:48:36.400Z,73.50
2017-10-01T16:51:04.658Z,74.40
2017-10-01T16:53:32.159Z,74.40
2017-10-01T16:55:59.649Z,74.60
2017-10-01T16:58:27.137Z,74.60
2017-10-01T17:00:54.706Z,74.80
2017-10-01T17:03:22.938Z,74.80
2017-10-01T17:05:50.434Z,74.80
2017-10-01T17:08:17.913Z,75.70
2017-10-01T17:10:46.219Z,77.50
2017-10-01T17:13:13.702Z,77.50
2017-10-01T17:15:41.181Z,78.90
2017-10-01T17:18:08.694Z,78.50
2017-10-01T17:20:36.476Z,77.20
2017-10-01T17:23:04.479Z,77.10
2017-10-01T17:25:32.015Z,76.60
2017-10-01T17:27:59.524Z,76.90
2017-10-01T17:30:27.811Z,75.70
2017-10-01T17:32:55.356Z,75.70
2017-10-01T17:35:23.618Z,75.40
2017-10-01T17:37:51.910Z,75.60
2017-10-01T17:40:20.178Z,75.20
2017-10-01T17:42:48.436Z,75.20
2017-10-01T17:45:20.489Z,75.70
2017-10-01T17:47:47.980Z,76.50
2017-10-01T17:50:17.579Z,76.80
2017-10-01T18:05:50.143Z,76.80
2017-10-01T18:08:18.058Z,79.80
2017-10-01T18:10:45.562Z,78.80
2017-10-01T18:13:13.104Z,78.30
2017-10-01T18:15:40.616Z,77.50
2017-10-01T18:18:08.897Z,80.60
2017-10-01T18:20:36.395Z,80.60
2017-10-01T18:23:03.869Z,81.00
2017-10-01T18:25:31.385Z,80.50
2017-10-01T18:27:58.850Z,79.60
2017-10-01T18:30:26.458Z,78.60
2017-10-01T18:32:53.963Z,77.70
2017-10-01T18:35:21.467Z,76.80
2017-10-01T18:37:49.016Z,76.60
2017-10-01T18:40:16.511Z,76.30
2017-10-01T18:42:44.779Z,77.40
2017-10-01T18:45:13.023Z,77.40
2017-10-01T18:47:40.515Z,77.40
2017-10-01T18:50:08.788Z,80.60
2017-10-01T18:52:36.260Z,80.50
2017-10-01T18:55:04.539Z,79.60
2017-10-01T18:57:32.779Z,79.40
2017-10-01T19:00:00.268Z,79.40
2017-10-01T19:02:28.516Z,79.90
2017-10-01T19:04:56.039Z,79.90
2017-10-01T19:07:23.540Z,79.60
2017-10-01T19:09:51.019Z,78.50
2017-10-01T19:12:19.281Z,77.50
2017-10-01T19:14:46.795Z,77.40
2017-10-01T19:17:14.288Z,76.90
2017-10-01T19:19:41.776Z,76.70
2017-10-01T19:22:10.060Z,76.00
2017-10-01T19:24:38.292Z,78.30
2017-10-01T19:27:05.800Z,78.30
2017-10-01T19:29:33.311Z,78.20
2017-10-01T19:32:00.812Z,77.10
2017-10-01T19:34:29.084Z,76.20
2017-10-01T19:36:57.331Z,76.30
2017-10-01T19:39:24.878Z,76.30
2017-10-01T19:41:52.354Z,76.60
2017-10-01T19:44:20.035Z,75.80
2017-10-01T19:46:48.302Z,77.40
2017-10-01T19:49:15.852Z,77.40
2017-10-01T19:51:43.311Z,78.70
2017-10-01T19:54:10.809Z,79.20
2017-10-01T19:56:39.072Z,77.70
2017-10-01T19:59:07.320Z,76.70
2017-10-01T20:01:34.821Z,76.60
2017-10-01T20:04:02.296Z,76.40
2017-10-01T20:06:29.772Z,76.40
2017-10-01T20:08:57.689Z,75.90
2017-10-01T20:11:25.185Z,75.90
2017-10-01T20:13:52.662Z,76.10
2017-10-01T20:16:20.191Z,76.00
2017-10-01T20:18:47.668Z,75.70
2017-10-01T20:21:15.149Z,75.90
2017-10-01T20:23:42.663Z,75.90
2017-10-01T20:26:10.135Z,75.30
2017-10-01T20:28:37.606Z,75.00
2017-10-01T20:31:05.117Z,75.10
2017-10-01T20:33:33.359Z,74.60
2017-10-01T20:36:00.872Z,74.60
2017-10-01T20:38:28.332Z,74.50
2017-10-01T20:40:55.820Z,74.40
2017-10-01T20:43:23.308Z,74.80
2017-10-01T20:45:50.796Z,76.10
2017-10-01T20:48:19.060Z,75.30
2017-10-01T20:50:48.428Z,74.90
2017-10-01T20:53:15.931Z,74.90
2017-10-01T20:55:44.337Z,75.00
2017-10-01T20:58:11.804Z,75.00
2017-10-01T21:00:39.279Z,74.20
2017-10-01T21:03:06.767Z,74.10
2017-10-01T21:05:34.686Z,74.70
2017-10-01T21:08:02.179Z,74.40
2017-10-01T21:10:29.688Z,74.60
2017-10-01T21:12:57.179Z,74.30
2017-10-01T21:15:24.643Z,73.90
2017-10-01T21:17:52.179Z,74.10
2017-10-01T21:20:19.692Z,74.80
2017-10-01T21:22:47.260Z,74.30
2017-10-01T21:25:14.767Z,73.80
2017-10-01T21:27:42.279Z,74.10
2017-10-01T21:30:09.800Z,74.00
2017-10-01T21:32:37.284Z,73.50
2017-10-01T21:35:04.799Z,73.50
2017-10-01T21:37:32.271Z,73.70
2017-10-01T21:39:59.744Z,73.60
2017-10-01T21:42:27.231Z,73.50
2017-10-01T21:44:55.518Z,74.10
2017-10-01T21:47:23.014Z,74.10
2017-10-01T21:49:50.493Z,74.40
2017-10-01T21:52:17.971Z,75.20
2017-10-01T21:54:45.455Z,75.40
2017-10-01T21:57:12.987Z,74.50
2017-10-01T21:59:40.498Z,74.60
2017-10-01T22:02:07.959Z,74.30
2017-10-01T22:04:35.469Z,73.10
2017-10-01T22:07:03.712Z,74.00
2017-10-01T22:09:31.246Z,74.00
2017-10-01T22:11:58.714Z,74.00
2017-10-01T22:14:26.218Z,73.30
2017-10-01T22:16:54.490Z,72.90
2017-10-01T22:19:22.351Z,72.90
2017-10-01T22:34:55.366Z,72.90
2017-10-01T22:37:23.269Z,74.50
2017-10-01T22:39:50.775Z,75.10
2017-10-01T22:42:19.100Z,76.30
2017-10-01T22:44:46.562Z,76.20
2017-10-01T22:47:14.113Z,76.50
2017-10-01T22:49:41.618Z,75.90
2017-10-01T22:52:09.095Z,75.50
2017-10-01T22:54:37.360Z,76.80
2017-10-01T22:57:09.456Z,76.80
2017-10-01T22:59:39.880Z,75.90
2017-10-01T23:02:07.350Z,75.90
2017-10-01T23:04:35.154Z,76.30
2017-10-01T23:07:02.651Z,76.40
2017-10-01T23:09:30.911Z,76.10
2017-10-01T23:11:58.403Z,76.10
2017-10-01T23:14:25.912Z,75.70
2017-10-01T23:16:53.379Z,75.30
2017-10-01T23:19:22.369Z,77.30
2017-10-01T23:21:49.869Z,77.30
2017-10-01T23:24:17.348Z,77.60
2017-10-01T23:26:44.889Z,77.40
2017-10-01T23:29:13.111Z,76.80
2017-10-01T23:31:40.589Z,76.80
2017-10-01T23:34:08.101Z,77.60
2017-10-01T23:36:35.585Z,77.60
2017-10-01T23:39:03.074Z,77.70
2017-10-01T23:41:31.336Z,77.90
2017-10-01T23:43:58.838Z,77.90
2017-10-01T23:46:26.347Z,77.50
2017-10-01T23:48:53.835Z,77.90
2017-10-01T23:51:22.099Z,80.60
2017-10-01T23:53:49.587Z,80.60
2017-10-01T23:56:17.841Z,80.60
2017-10-01T23:58:46.096Z,81.90
